Time;durP1;ratioP1;P1;durP2;ratioP2;P2;SDS_P1;SDS_P2;PMS_P1;PMS_P2;Temp;Humidity;BMP_temperature;BMP_pressure;BME280_temperature;BME280_humidity;BME280_pressure;Samples;Min_cycle;Max_cycle;Signal;HPM_P1;HPM_P2
2023/08/15 03:38:06;;;;;;;7.63;5.47;;;;;;;20.03;100.00;100718.50;5409111;23;20138;-90
2023/08/15 03:40:33;;;;;;;6.90;5.35;;;;;;;19.99;100.00;100726.78;4888808;29;20142;-91
2023/08/15 03:43:00;;;;;;;6.78;5.07;;;;;;;19.96;100.00;100725.16;4904377;29;20055;-90
2023/08/15 03:45:28;;;;;;;6.13;5.22;;;;;;;19.94;100.00;100719.03;4904173;29;20052;-90
2023/08/15 03:47:55;;;;;;;5.55;4.90;;;;;;;19.83;100.00;100721.47;4903238;29;20111;-91
2023/08/15 03:50:22;;;;;;;6.07;5.47;;;;;;;19.81;100.00;100721.56;4886832;29;20096;-88
2023/08/15 03:52:49;;;;;;;5.85;4.88;;;;;;;19.86;100.00;100724.84;4904484;29;20047;-88
2023/08/15 03:55:16;;;;;;;5.70;5.00;;;;;;;19.91;100.00;100717.38;4902497;29;20048;-86
2023/08/15 03:57:43;;;;;;;6.53;5.80;;;;;;;19.77;100.00;100728.06;4902027;29;20039;-90
2023/08/15 04:00:11;;;;;;;9.05;5.80;;;;;;;19.67;100.00;100724.16;4904567;29;20486;-89
2023/08/15 04:02:38;;;;;;;7.18;5.90;;;;;;;19.71;100.00;100719.50;4900794;29;20075;-90
2023/08/15 04:05:05;;;;;;;6.22;5.50;;;;;;;19.68;100.00;100728.59;4901543;29;20047;-87
2023/08/15 04:07:32;;;;;;;7.63;5.38;;;;;;;19.63;100.00;100734.19;4901512;29;20040;-89
2023/08/15 04:09:59;;;;;;;6.07;5.47;;;;;;;19.61;100.00;100727.22;4919061;29;20047;-87
2023/08/15 04:12:26;;;;;;;6.25;5.65;;;;;;;19.59;100.00;100737.13;4917070;29;20047;-90
2023/08/15 04:14:53;;;;;;;7.25;6.10;;;;;;;19.60;100.00;100738.88;4885089;29;20048;-88
2023/08/15 04:17:23;;;;;;;6.75;5.75;;;;;;;19.57;100.00;100736.34;4898512;29;20051;-88
2023/08/15 04:19:50;;;;;;;6.70;5.45;;;;;;;19.53;100.00;100738.31;4899182;29;20039;-89
2023/08/15 04:22:17;;;;;;;6.10;5.07;;;;;;;19.53;100.00;100734.78;4903108;29;20136;-88
2023/08/15 04:24:44;;;;;;;6.45;5.00;;;;;;;19.53;100.00;100745.50;4881032;29;20051;-88
2023/08/15 04:27:11;;;;;;;6.65;5.95;;;;;;;19.51;100.00;100744.72;4903134;29;20063;-88
2023/08/15 04:29:40;;;;;;;6.60;5.97;;;;;;;19.52;100.00;100744.63;4889043;29;20055;-89
2023/08/15 04:32:07;;;;;;;8.68;6.80;;;;;;;19.50;100.00;100756.38;4903594;29;20047;-88
2023/08/15 04:34:34;;;;;;;7.10;6.18;;;;;;;19.57;100.00;100747.06;4885936;29;20047;-88
2023/08/15 04:37:00;;;;;;;6.55;5.88;;;;;;;19.51;100.00;100750.09;4884026;29;20067;-88
2023/08/15 04:39:27;;;;;;;7.20;6.20;;;;;;;19.49;100.00;100760.00;4875994;29;20044;-87
2023/08/15 04:41:57;;;;;;;9.65;6.88;;;;;;;19.67;100.00;100765.25;4886919;29;20058;-88
2023/08/15 04:44:24;;;;;;;7.95;7.15;;;;;;;19.69;100.00;100759.81;4901859;29;20063;-88
2023/08/15 04:46:51;;;;;;;8.65;7.38;;;;;;;19.66;100.00;100766.19;4883551;29;20051;-87
2023/08/15 04:49:17;;;;;;;8.07;6.65;;;;;;;19.67;100.00;100770.63;4902381;29;20545;-87
2023/08/15 04:51:44;;;;;;;8.80;7.03;;;;;;;19.76;100.00;100779.06;4902106;29;20100;-89
2023/08/15 04:54:11;;;;;;;7.85;7.03;;;;;;;19.81;100.00;100772.50;4887081;29;20044;-87
2023/08/15 04:56:38;;;;;;;10.90;7.28;;;;;;;19.88;100.00;100778.38;4901273;29;20047;-88
2023/08/15 04:59:04;;;;;;;9.93;7.57;;;;;;;19.95;100.00;100777.94;4888189;29;20076;-90
2023/08/15 05:01:31;;;;;;;12.07;8.05;;;;;;;20.03;100.00;100782.00;4903295;29;20078;-88
2023/08/15 05:03:58;;;;;;;7.97;6.97;;;;;;;20.11;100.00;100771.69;4886963;29;20490;-89
2023/08/15 05:06:25;;;;;;;9.27;7.35;;;;;;;20.13;100.00;100775.16;4900621;29;20055;-88
2023/08/15 05:08:52;;;;;;;8.82;6.70;;;;;;;20.08;100.00;100778.06;4903159;29;20048;-88
2023/08/15 05:11:19;;;;;;;7.95;6.93;;;;;;;20.14;100.00;100782.22;4903083;29;20490;-89
2023/08/15 05:13:45;;;;;;;8.77;7.53;;;;;;;20.18;100.00;100773.94;4887382;29;20113;-89
2023/08/15 05:16:12;;;;;;;10.93;7.35;;;;;;;20.26;100.00;100778.81;4901363;29;20519;-89
2023/08/15 05:18:39;;;;;;;9.23;7.18;;;;;;;20.22;100.00;100775.47;4892408;29;20044;-88
2023/08/15 05:21:06;;;;;;;9.55;7.15;;;;;;;20.25;100.00;100779.78;4902176;29;20040;-89
2023/08/15 05:23:33;;;;;;;8.57;7.55;;;;;;;20.21;100.00;100791.66;4885764;29;20070;-87
2023/08/15 05:26:00;;;;;;;9.73;8.35;;;;;;;20.33;100.00;100795.44;4899981;29;20096;-89
2023/08/15 05:28:27;;;;;;;12.20;8.70;;;;;;;20.38;100.00;100802.25;4883246;29;20170;-90
2023/08/15 05:30:55;;;;;;;8.45;6.65;;;;;;;20.49;100.00;100802.50;4892182;29;20048;-89
2023/08/15 05:33:22;;;;;;;8.68;7.70;;;;;;;20.50;100.00;100796.19;4887064;29;20469;-88
2023/08/15 05:35:49;;;;;;;8.95;7.32;;;;;;;20.57;100.00;100799.38;4885680;29;20051;-89
2023/08/15 05:38:16;;;;;;;9.73;7.88;;;;;;;20.64;100.00;100805.25;4898992;29;20141;-88
2023/08/15 05:40:42;;;;;;;9.88;8.32;;;;;;;20.65;100.00;100809.66;4886865;29;20123;-88
2023/08/15 05:43:09;;;;;;;8.30;7.38;;;;;;;20.71;100.00;100799.41;4902172;29;20313;-89
2023/08/15 05:46:16;;;;;;;8.77;7.22;;;;;;;20.85;100.00;100801.28;4899033;29;20051;-89
2023/08/15 05:48:45;;;;;;;10.43;7.50;;;;;;;20.89;100.00;100804.63;4920199;29;20039;-92
2023/08/15 05:51:12;;;;;;;9.50;8.13;;;;;;;20.91;100.00;100802.72;4886530;29;20036;-91
2023/08/15 05:54:39;;;;;;;9.30;7.60;;;;;;;21.07;100.00;100808.88;4876278;29;20058;-91
2023/08/15 05:58:45;;;;;;;7.22;6.53;;;;;;;21.24;100.00;100797.06;4927429;29;20134;-90
2023/08/15 06:02:13;;;;;;;7.55;6.70;;;;;;;21.48;100.00;100792.88;4916908;29;20589;-90
2023/08/15 06:04:41;;;;;;;9.15;6.10;;;;;;;21.73;100.00;100810.13;4912318;29;20048;-88
2023/08/15 06:07:08;;;;;;;8.40;6.38;;;;;;;21.79;100.00;100815.09;4885694;29;20122;-90
2023/08/15 06:09:35;;;;;;;6.32;5.72;;;;;;;21.92;100.00;100814.19;4874831;29;20093;-89
2023/08/15 06:12:02;;;;;;;6.65;5.97;;;;;;;22.15;100.00;100828.88;4885254;29;20557;-90
2023/08/15 06:14:30;;;;;;;6.45;5.43;;;;;;;22.39;100.00;100826.38;4886083;29;20044;-90
2023/08/15 06:16:57;;;;;;;5.88;4.85;;;;;;;22.67;100.00;100819.13;4884747;29;20091;-88
2023/08/15 06:19:24;;;;;;;5.22;4.72;;;;;;;22.62;100.00;100810.50;4901782;29;20501;-89
2023/08/15 06:21:52;;;;;;;5.43;4.20;;;;;;;23.03;100.00;100813.03;4885863;29;20039;-90
2023/08/15 06:24:19;;;;;;;4.80;4.40;;;;;;;24.17;100.00;100808.44;4888216;29;20047;-89
2023/08/15 06:26:46;;;;;;;4.75;4.00;;;;;;;25.64;100.00;100804.09;4889089;29;20421;-89
2023/08/15 06:29:13;;;;;;;4.53;3.67;;;;;;;27.02;90.05;100806.09;4907051;29;20417;-90
2023/08/15 06:31:40;;;;;;;4.78;3.92;;;;;;;28.08;81.18;100814.69;4873234;29;20058;-89
2023/08/15 06:34:07;;;;;;;3.95;3.55;;;;;;;28.75;74.14;100815.75;4888248;29;20068;-90
2023/08/15 06:36:35;;;;;;;4.82;4.22;;;;;;;29.47;70.41;100819.75;4902464;29;20039;-91
2023/08/15 06:39:03;;;;;;;4.20;3.80;;;;;;;29.72;68.17;100819.09;4875022;29;20099;-90
2023/08/15 06:41:30;;;;;;;5.07;4.40;;;;;;;29.58;67.11;100819.59;4874429;29;20052;-90
2023/08/15 06:43:59;;;;;;;4.78;3.83;;;;;;;29.91;67.04;100826.31;4907777;29;20087;-89
2023/08/15 06:46:26;;;;;;;4.43;4.03;;;;;;;29.74;67.96;100818.94;4888074;29;20051;-91
2023/08/15 06:49:00;;;;;;;5.20;4.13;;;;;;;28.53;71.16;100825.09;4889690;29;20040;-88
2023/08/15 06:51:27;;;;;;;5.60;4.30;;;;;;;28.20;74.68;100823.59;4906384;29;20048;-88
2023/08/15 06:54:43;;;;;;;6.22;4.63;;;;;;;27.69;80.29;100822.78;4904604;29;20099;-90
2023/08/15 06:57:26;;;;;;;5.43;4.93;;;;;;;27.00;82.31;100827.94;4924157;29;20486;-89
2023/08/15 06:59:53;;;;;;;4.97;4.43;;;;;;;26.34;84.84;100821.84;4893100;29;20036;-89
2023/08/15 07:02:20;;;;;;;5.43;4.93;;;;;;;26.08;87.48;100803.22;4892906;29;20043;-89
2023/08/15 07:04:48;;;;;;;5.55;4.80;;;;;;;26.09;92.82;100804.94;4906227;29;20570;-89
2023/08/15 07:07:15;;;;;;;5.70;4.80;;;;;;;26.01;95.68;100807.41;4892756;29;20046;-89
2023/08/15 07:09:42;;;;;;;5.45;4.95;;;;;;;25.80;95.62;100812.72;4909316;29;20044;-90
2023/08/15 07:12:09;;;;;;;7.70;5.57;;;;;;;25.71;94.58;100815.31;4908315;29;20051;-92
2023/08/15 07:14:36;;;;;;;6.95;5.13;;;;;;;25.82;98.81;100826.16;4907966;29;20043;-89
2023/08/15 07:17:03;;;;;;;7.20;5.50;;;;;;;25.84;97.18;100824.19;4906620;29;20050;-90
2023/08/15 07:19:30;;;;;;;6.63;4.93;;;;;;;25.96;100.00;100820.44;4891028;29;20046;-89
2023/08/15 07:21:57;;;;;;;5.40;4.90;;;;;;;26.04;100.00;100809.00;4891827;29;20475;-89
2023/08/15 07:24:24;;;;;;;6.32;5.22;;;;;;;26.16;99.52;100816.13;4890394;29;20098;-90
2023/08/15 07:26:51;;;;;;;5.53;5.03;;;;;;;26.05;97.60;100813.41;4885117;29;20130;-90
2023/08/15 07:29:18;;;;;;;5.00;4.53;;;;;;;25.91;97.03;100797.47;4902443;29;20127;-90
2023/08/15 07:31:45;;;;;;;6.85;4.70;;;;;;;25.99;94.43;100803.97;4908859;29;20096;-90
2023/08/15 07:34:13;;;;;;;5.70;5.20;;;;;;;25.99;96.43;100806.69;4904698;29;20435;-90
2023/08/15 07:36:40;;;;;;;4.55;4.15;;;;;;;26.03;95.09;100802.72;4900200;29;20048;-90
2023/08/15 07:39:07;;;;;;;6.18;4.78;;;;;;;26.08;94.54;100799.66;4889650;29;20079;-90
2023/08/15 07:41:34;;;;;;;5.43;4.78;;;;;;;26.19;98.64;100798.75;4890529;29;20048;-90
2023/08/15 07:44:01;;;;;;;5.25;4.45;;;;;;;26.31;97.31;100803.09;4890016;29;20414;-90
2023/08/15 07:46:28;;;;;;;6.88;4.57;;;;;;;26.48;94.44;100809.84;4904852;29;20058;-90
2023/08/15 07:48:55;;;;;;;5.15;4.60;;;;;;;26.61;94.66;100807.81;4889734;29;20490;-91
2023/08/15 07:51:24;;;;;;;6.00;4.18;;;;;;;26.60;93.43;100815.09;4890224;29;20384;-90
2023/08/15 07:53:50;;;;;;;4.85;3.92;;;;;;;26.70;92.81;100823.28;4904554;29;20075;-91
2023/08/15 07:56:17;;;;;;;6.18;4.68;;;;;;;26.82;93.69;100819.56;4888852;29;20054;-91
2023/08/15 07:58:44;;;;;;;5.65;4.68;;;;;;;26.86;87.86;100815.56;4888908;29;20047;-92
2023/08/15 08:01:11;;;;;;;4.20;3.75;;;;;;;26.90;90.68;100811.59;4888759;29;20047;-90
2023/08/15 08:03:42;;;;;;;5.13;4.63;;;;;;;26.92;86.24;100798.78;4889037;29;20516;-92
2023/08/15 08:06:09;;;;;;;5.93;4.53;;;;;;;26.73;80.79;100803.19;4904505;29;20058;-91
2023/08/15 08:08:57;;;;;;;4.82;3.92;;;;;;;26.93;84.42;100796.94;4906487;29;20044;-90
2023/08/15 08:11:24;;;;;;;4.18;3.78;;;;;;;27.01;93.22;100807.09;4904285;29;20048;-91
2023/08/15 08:13:51;;;;;;;4.88;3.92;;;;;;;27.04;87.81;100815.00;4888535;29;20390;-91
2023/08/15 08:16:18;;;;;;;5.43;4.25;;;;;;;27.10;88.44;100823.47;4888441;29;20051;-91
2023/08/15 08:18:45;;;;;;;4.25;3.85;;;;;;;27.15;86.98;100823.03;4888578;29;20508;-90
2023/08/15 08:21:12;;;;;;;4.30;3.85;;;;;;;27.21;88.05;100823.38;4888535;29;20071;-91
2023/08/15 08:23:39;;;;;;;5.28;3.58;;;;;;;27.25;85.18;100826.69;4904030;29;20050;-91
2023/08/15 08:26:05;;;;;;;4.35;3.83;;;;;;;27.25;86.12;100825.84;4888529;29;20379;-91
2023/08/15 08:28:32;;;;;;;4.25;3.85;;;;;;;27.28;89.32;100826.41;4888589;29;20159;-91
2023/08/15 08:30:59;;;;;;;6.63;3.67;;;;;;;27.38;87.80;100823.75;4888197;29;20054;-91
2023/08/15 08:33:28;;;;;;;6.03;3.83;;;;;;;27.41;85.74;100816.22;4888294;29;20036;-92
2023/08/15 08:35:56;;;;;;;6.30;3.50;;;;;;;27.44;83.88;100807.78;4888453;29;20051;-91
2023/08/15 08:38:23;;;;;;;3.95;2.97;;;;;;;27.47;86.71;100821.06;4888123;29;20104;-91
2023/08/15 08:40:55;;;;;;;7.30;3.70;;;;;;;27.46;81.93;100824.78;4889062;29;20047;-92
2023/08/15 08:43:22;;;;;;;3.70;3.28;;;;;;;27.38;81.73;100834.59;4887636;29;20043;-92
2023/08/15 08:45:51;;;;;;;3.30;3.00;;;;;;;27.42;78.84;100838.78;4887942;29;20073;-92
2023/08/15 08:48:19;;;;;;;3.47;3.13;;;;;;;27.47;81.42;100834.63;4887691;29;20123;-92
2023/08/15 08:50:46;;;;;;;3.55;3.25;;;;;;;27.52;83.20;100823.38;4887734;29;20048;-91
2023/08/15 08:53:13;;;;;;;4.30;3.55;;;;;;;27.61;80.97;100829.84;4887424;29;20139;-91
2023/08/15 08:55:40;;;;;;;4.35;3.75;;;;;;;27.77;82.63;100846.50;4903031;29;20044;-92
2023/08/15 08:58:10;;;;;;;3.80;3.50;;;;;;;27.88;81.05;100849.13;4902945;29;20130;-92
2023/08/15 09:00:39;;;;;;;4.15;3.75;;;;;;;27.99;75.97;100843.56;4887937;29;20040;-92
2023/08/15 09:03:06;;;;;;;3.80;3.50;;;;;;;28.11;77.88;100846.19;4887414;29;20054;-92
2023/08/15 09:05:33;;;;;;;3.92;3.60;;;;;;;28.13;76.76;100849.59;4896931;29;20054;-91
2023/08/15 09:08:00;;;;;;;4.93;3.85;;;;;;;28.19;74.25;100851.78;4894328;29;20067;-89
2023/08/15 09:10:28;;;;;;;3.67;3.38;;;;;;;28.16;75.07;100850.16;4894343;29;20056;-89
2023/08/15 09:12:59;;;;;;;5.95;3.60;;;;;;;28.33;73.34;100851.38;4906496;29;20059;-92
2023/08/15 09:15:26;;;;;;;4.22;3.72;;;;;;;28.53;75.96;100850.41;4891987;29;20048;-90
2023/08/15 09:17:59;;;;;;;4.45;3.83;;;;;;;28.73;75.93;100853.09;4911850;29;20051;-90
2023/08/15 09:20:27;;;;;;;;;;;;;;;28.87;73.77;100845.38;4899174;29;20051;-92
2023/08/15 09:22:56;;;;;;;4.88;3.88;;;;;;;28.78;71.52;100853.56;4894533;29;19911;-90
2023/08/15 09:25:25;;;;;;;4.18;3.78;;;;;;;28.84;70.22;100856.56;4893567;29;20048;-91
2023/08/15 09:27:53;;;;;;;4.72;3.50;;;;;;;29.09;71.43;100855.13;4894699;29;20055;-91
2023/08/15 09:30:21;;;;;;;3.85;3.55;;;;;;;29.09;70.52;100865.13;4908335;29;20050;-91
2023/08/15 09:32:48;;;;;;;4.65;3.60;;;;;;;29.19;69.67;100860.53;4897901;29;20058;-89
2023/08/15 09:35:17;;;;;;;4.20;3.80;;;;;;;29.35;72.76;100870.81;4911707;29;20044;-92
2023/08/15 09:37:47;;;;;;;3.95;3.65;;;;;;;29.52;73.36;100872.78;4911087;29;20402;-92
2023/08/15 09:40:16;;;;;;;7.90;5.43;;;;;;;29.52;68.29;100878.25;4924560;29;20490;-91
2023/08/15 09:42:45;;;;;;;5.60;4.20;;;;;;;29.46;70.22;100875.22;4910378;29;20054;-91
2023/08/15 09:45:13;;;;;;;5.18;4.20;;;;;;;29.58;67.51;100869.44;4906057;29;20070;-92
2023/08/15 09:47:40;;;;;;;5.65;4.72;;;;;;;29.60;69.83;100862.03;4887814;29;20046;-91
2023/08/15 09:50:09;;;;;;;5.97;4.45;;;;;;;29.46;64.26;100862.47;4895068;29;20066;-90
2023/08/15 09:52:41;;;;;;;5.85;4.60;;;;;;;29.61;65.66;100861.00;4886894;29;20058;-90
2023/08/15 09:55:09;;;;;;;6.45;4.97;;;;;;;29.49;66.15;100848.56;4902271;29;20044;-92
2023/08/15 09:57:38;;;;;;;5.22;4.72;;;;;;;29.55;67.05;100856.16;4905192;29;20047;-91
2023/08/15 10:00:11;;;;;;;4.85;4.35;;;;;;;29.50;66.91;100847.56;4907940;29;20065;-91
2023/08/15 10:02:55;;;;;;;4.97;4.53;;;;;;;29.86;68.90;100836.81;4911572;29;20063;-91
2023/08/15 10:05:26;;;;;;;5.00;4.20;;;;;;;29.86;66.00;100825.91;4898766;29;20051;-91
2023/08/15 10:07:55;;;;;;;5.03;4.55;;;;;;;29.66;63.51;100826.00;4897924;29;20048;-92
2023/08/15 10:10:22;;;;;;;5.28;4.78;;;;;;;29.52;67.22;100829.25;4886515;29;20167;-91
2023/08/15 10:12:50;;;;;;;5.30;4.90;;;;;;;29.17;63.75;100814.41;4901854;29;20147;-91
2023/08/15 10:15:17;;;;;;;5.22;4.82;;;;;;;29.06;68.04;100811.00;4901628;29;20138;-91
2023/08/15 10:17:45;;;;;;;5.55;5.05;;;;;;;28.85;68.26;100813.91;4890668;29;20075;-93
2023/08/15 10:20:17;;;;;;;5.43;4.93;;;;;;;28.65;69.42;100817.63;4903049;29;20070;-94
2023/08/15 10:22:44;;;;;;;4.93;4.50;;;;;;;28.62;69.37;100807.91;4890038;29;20047;-93
2023/08/15 10:25:24;;;;;;;5.68;5.05;;;;;;;28.52;72.78;100815.22;4887363;29;20441;-93
2023/08/15 10:27:53;;;;;;;5.85;5.18;;;;;;;28.49;71.44;100813.63;4904380;29;20612;-94
2023/08/15 10:30:33;;;;;;;6.13;5.30;;;;;;;28.45;73.94;100823.06;4888842;29;20135;-93
2023/08/15 10:33:14;;;;;;;5.43;5.03;;;;;;;28.42;74.86;100817.06;4904973;29;20074;-93
2023/08/15 10:35:51;;;;;;;5.45;4.80;;;;;;;28.31;74.93;100801.75;4889325;29;20390;-93
2023/08/15 10:38:20;;;;;;;5.55;5.10;;;;;;;28.33;75.08;100805.19;4887494;29;20039;-92
2023/08/15 10:40:48;;;;;;;5.45;4.97;;;;;;;28.40;76.34;100805.47;4888426;29;20074;-93
2023/08/15 10:43:16;;;;;;;6.07;5.32;;;;;;;28.37;74.93;100787.59;4888724;29;20044;-93
2023/08/15 10:45:43;;;;;;;5.53;5.13;;;;;;;28.21;71.03;100784.56;4889735;29;20070;-92
2023/08/15 10:48:11;;;;;;;5.93;5.43;;;;;;;27.98;75.55;100773.09;4905347;29;20058;-93
2023/08/15 10:50:46;;;;;;;5.63;5.07;;;;;;;27.90;80.37;100762.06;4886903;29;20043;-93
2023/08/15 10:53:14;;;;;;;6.00;5.50;;;;;;;27.80;85.42;100778.34;4886642;29;20094;-93
2023/08/15 10:55:46;;;;;;;5.95;5.35;;;;;;;27.73;90.30;100788.91;4901985;29;20051;-92
2023/08/15 10:58:13;;;;;;;6.03;5.45;;;;;;;27.65;91.25;100790.56;4902370;29;20405;-93
2023/08/15 11:00:43;;;;;;;5.93;5.43;;;;;;;27.68;93.07;100799.34;4889158;29;20047;-93
2023/08/15 11:03:10;;;;;;;6.85;5.95;;;;;;;27.67;89.12;100804.91;4904665;29;20491;-93
2023/08/15 11:05:37;;;;;;;7.20;5.97;;;;;;;27.64;91.36;100805.13;4889271;29;20043;-94
2023/08/15 11:08:17;;;;;;;6.63;6.03;;;;;;;27.65;96.34;100820.41;4904564;29;20044;-93
2023/08/15 11:10:49;;;;;;;6.32;5.78;;;;;;;27.61;97.23;100821.72;4904826;29;20067;-93
2023/08/15 11:13:16;;;;;;;6.05;5.55;;;;;;;27.71;96.08;100811.75;4890188;29;20052;-92
2023/08/15 11:15:45;;;;;;;6.10;5.60;;;;;;;28.00;91.15;100807.28;4904119;29;20052;-93
2023/08/15 11:18:20;;;;;;;6.38;5.78;;;;;;;28.45;84.68;100808.63;4906633;29;20052;-93
2023/08/15 11:20:48;;;;;;;6.22;5.47;;;;;;;28.78;72.37;100801.88;4891211;29;20048;-93
2023/08/15 11:23:15;;;;;;;6.75;6.15;;;;;;;29.09;75.27;100808.88;4912401;29;20047;-94
2023/08/15 11:25:42;;;;;;;6.63;6.03;;;;;;;29.24;70.90;100802.94;4924464;29;20457;-93
2023/08/15 11:28:10;;;;;;;6.63;5.90;;;;;;;29.43;69.38;100809.19;4893975;29;20144;-95
2023/08/15 11:30:40;;;;;;;6.88;6.20;;;;;;;29.72;68.39;100802.75;4894402;29;20326;-94
2023/08/15 11:33:09;;;;;;;6.30;5.70;;;;;;;29.93;67.45;100806.09;4908829;29;20044;-93
2023/08/15 11:35:39;;;;;;;5.95;5.45;;;;;;;30.12;66.75;100807.84;4893788;29;20048;-93
2023/08/15 11:38:10;;;;;;;5.60;4.95;;;;;;;30.35;61.83;100810.09;4893761;29;20073;-93
2023/08/15 11:40:37;;;;;;;5.45;4.95;;;;;;;30.47;62.24;100817.91;4896165;29;20537;-93
2023/08/15 11:43:06;;;;;;;5.75;5.25;;;;;;;30.56;62.48;100807.94;4906490;29;20051;-94
2023/08/15 11:45:36;;;;;;;5.50;5.00;;;;;;;30.68;60.07;100805.81;4924528;29;20036;-94
2023/08/15 11:48:19;;;;;;;6.25;4.97;;;;;;;30.59;57.48;100809.47;4909696;29;20055;-94
2023/08/15 11:51:05;;;;;;;6.22;5.63;;;;;;;30.42;60.31;100811.19;4913566;29;20552;-90
2023/08/15 11:53:33;;;;;;;6.05;4.57;;;;;;;30.48;59.27;100797.81;4914356;29;20051;-91
2023/08/15 11:55:59;;;;;;;5.28;4.78;;;;;;;30.65;60.85;100798.81;4897448;29;20114;-92
2023/08/15 11:58:31;;;;;;;5.45;4.95;;;;;;;30.77;61.36;100799.41;4898853;29;20067;-92
2023/08/15 12:01:06;;;;;;;5.90;4.80;;;;;;;30.69;58.40;100789.34;4897880;29;20395;-93
2023/08/15 12:03:34;;;;;;;5.85;5.07;;;;;;;30.66;55.69;100796.97;4923043;29;20088;-95
2023/08/15 12:06:13;;;;;;;5.63;4.18;;;;;;;30.74;56.18;100797.88;4912151;29;20059;-91
2023/08/15 12:08:43;;;;;;;5.55;4.68;;;;;;;30.83;56.96;100790.59;4928529;29;20043;-90
2023/08/15 12:11:12;;;;;;;4.78;4.32;;;;;;;30.92;54.90;100786.91;4913052;29;20043;-92
2023/08/15 12:13:40;;;;;;;5.10;4.60;;;;;;;31.00;53.83;100783.38;4912452;29;20027;-89
2023/08/15 12:16:09;;;;;;;3.83;3.50;;;;;;;31.06;52.97;100789.06;4919041;29;20142;-93
2023/08/15 12:18:39;;;;;;;4.40;4.00;;;;;;;31.23;55.38;100792.78;4919782;29;20525;-92
2023/08/15 12:21:10;;;;;;;3.97;3.58;;;;;;;31.21;50.41;100791.22;4932664;29;20040;-93
2023/08/15 12:23:40;;;;;;;4.30;3.47;;;;;;;31.17;50.35;100792.53;4906921;29;20071;-92
2023/08/15 12:26:07;;;;;;;4.32;3.92;;;;;;;31.19;53.47;100790.50;4909844;29;20072;-92
2023/08/15 12:28:34;;;;;;;4.50;4.10;;;;;;;31.28;51.40;100800.50;4922206;29;20060;-91
2023/08/15 12:31:01;;;;;;;5.30;4.13;;;;;;;31.31;51.62;100795.56;4912213;28;20028;-90
2023/08/15 12:33:33;;;;;;;5.32;4.03;;;;;;;31.31;53.37;100798.28;4912024;29;20043;-89
2023/08/15 12:36:14;;;;;;;4.97;4.05;;;;;;;31.34;52.49;100791.63;4929541;28;20043;-92
2023/08/15 12:38:43;;;;;;;4.53;4.13;;;;;;;31.43;51.31;100798.84;4912069;29;20034;-93
2023/08/15 12:41:13;;;;;;;4.40;4.00;;;;;;;31.46;53.19;100789.50;4912633;28;20115;-93
2023/08/15 12:43:40;;;;;;;5.85;4.25;;;;;;;31.47;51.21;100793.94;4927609;29;20040;-92
2023/08/15 12:46:08;;;;;;;5.32;3.78;;;;;;;31.40;51.76;100799.19;4911371;29;20044;-93
2023/08/15 12:48:35;;;;;;;4.85;4.10;;;;;;;31.31;52.67;100792.84;4910114;29;20058;-92
2023/08/15 12:51:03;;;;;;;4.57;4.18;;;;;;;31.19;52.82;100794.06;4898913;29;20036;-93
2023/08/15 12:53:30;;;;;;;4.72;4.32;;;;;;;31.12;53.23;100787.59;4916157;29;20055;-92
2023/08/15 12:55:57;;;;;;;4.70;4.13;;;;;;;31.22;53.33;100796.53;4902429;29;20059;-92
2023/08/15 12:58:24;;;;;;;5.55;4.63;;;;;;;31.30;53.57;100791.13;4918542;29;20043;-93
2023/08/15 13:00:53;;;;;;;5.03;4.50;;;;;;;31.35;53.08;100796.06;4898656;29;20056;-94
2023/08/15 13:03:20;;;;;;;7.05;3.92;;;;;;;31.42;53.30;100783.50;4916837;29;20107;-92
2023/08/15 13:05:53;;;;;;;5.00;4.50;;;;;;;31.52;52.83;100780.63;4925447;29;20042;-94
2023/08/15 13:08:24;;;;;;;4.80;4.30;;;;;;;31.54;52.84;100787.66;4911229;29;20058;-91
2023/08/15 13:10:52;;;;;;;4.70;4.32;;;;;;;31.63;53.66;100794.88;4906987;29;20054;-92
2023/08/15 13:13:20;;;;;;;4.60;4.20;;;;;;;31.67;53.72;100782.56;4909741;29;20088;-92
2023/08/15 13:15:47;;;;;;;5.30;4.80;;;;;;;31.74;51.99;100788.22;4925007;29;20051;-93
2023/08/15 13:18:14;;;;;;;4.43;4.00;;;;;;;31.81;54.09;100788.47;4908295;29;20054;-92
2023/08/15 13:20:41;;;;;;;4.40;4.00;;;;;;;31.81;52.79;100794.78;4924717;29;20138;-93
